createdAt,value
2016-08-09T04:57:26.416Z,38.41
2016-08-09T04:57:51.965Z,37.34
2016-08-09T04:58:17.536Z,37.05
2016-08-09T04:58:43.114Z,37.15
2016-08-09T04:59:08.680Z,36.86
2016-08-09T04:59:34.236Z,36.86
2016-08-09T04:59:59.852Z,36.47
2016-08-09T05:00:25.391Z,36.66
2016-08-09T05:00:50.990Z,36.86
2016-08-09T05:01:16.557Z,36.66
2016-08-09T05:01:42.124Z,36.47
2016-08-09T05:02:07.688Z,36.3
2016-08-09T05:02:33.256Z,36.57
2016-08-09T05:02:58.834Z,36.86
2016-08-09T05:03:24.396Z,36.66
2016-08-09T05:03:49.953Z,36.49
2016-08-09T05:04:15.542Z,36.1
2016-08-09T05:04:41.109Z,35.81
2016-08-09T05:05:06.673Z,35.91
2016-08-09T05:05:32.310Z,35.72
2016-08-09T05:05:57.891Z,35.52
2016-08-09T05:06:23.544Z,35.62
2016-08-09T05:06:49.159Z,35.62
2016-08-09T05:07:14.710Z,36.2
2016-08-09T05:07:40.276Z,36.3
2016-08-09T05:08:05.888Z,36.68
2016-08-09T05:08:31.447Z,36.49
2016-08-09T05:08:57.014Z,35.73
2016-08-09T05:09:22.608Z,35.62
2016-08-09T05:09:48.300Z,35.62
2016-08-09T05:10:13.868Z,35.44
2016-08-09T05:10:39.427Z,35.15
2016-08-09T05:11:04.971Z,35.15
2016-08-09T05:11:30.527Z,34.94
2016-08-09T05:11:56.138Z,34.86
2016-08-09T05:12:21.680Z,34.67
2016-08-09T05:12:47.227Z,34.67
2016-08-09T05:13:12.851Z,34.55
2016-08-09T05:13:38.412Z,34.77
2016-08-09T05:14:03.953Z,34.77
2016-08-09T05:14:29.507Z,34.67
2016-08-09T05:14:55.075Z,34.28
2016-08-09T05:15:20.651Z,34.38
2016-08-09T05:15:46.237Z,34.38
2016-08-09T05:16:11.806Z,34.28
2016-08-09T05:16:37.373Z,34.28
2016-08-09T05:17:02.955Z,34.38
2016-08-09T05:17:28.536Z,34.28
2016-08-09T05:18:19.663Z,34.19
2016-08-09T05:18:45.215Z,34.38
2016-08-09T05:19:10.844Z,33.99
2016-08-09T05:19:36.428Z,33.7
2016-08-09T05:20:02.005Z,33.51
2016-08-09T05:20:27.564Z,33.31
2016-08-09T05:20:53.141Z,33.89
2016-08-09T05:21:18.704Z,35.15
2016-08-09T05:21:44.293Z,34.67
2016-08-09T05:22:09.858Z,34.84
2016-08-09T05:22:35.405Z,34.45
2016-08-09T05:23:01.038Z,35.33
2016-08-09T05:23:26.695Z,35.13
2016-08-09T05:23:52.275Z,34.94
2016-08-09T05:24:17.909Z,34.94
2016-08-09T05:24:43.583Z,35.13
2016-08-09T05:25:09.155Z,35.42
2016-08-09T05:25:34.736Z,35.52
2016-08-09T05:26:00.316Z,35.54
2016-08-09T05:26:25.869Z,35.93
2016-08-09T05:26:51.445Z,36.02
2016-08-09T05:27:17.094Z,35.83
2016-08-09T05:27:42.666Z,35.83
2016-08-09T05:28:08.239Z,35.93
2016-08-09T05:28:33.805Z,35.83
2016-08-09T05:28:59.383Z,36.02
2016-08-09T05:29:24.980Z,35.73
2016-08-09T05:29:50.575Z,35.83
2016-08-09T05:30:16.222Z,35.83
2016-08-09T05:47:25.617Z,36.43
2016-08-09T05:47:51.323Z,35.85
2016-08-09T05:48:16.837Z,35.66
2016-08-09T05:48:42.408Z,35.54
2016-08-09T05:49:07.987Z,35.46
2016-08-09T05:49:35.150Z,35.54
2016-08-09T05:50:00.723Z,35.73
2016-08-09T05:50:26.409Z,36.02
2016-08-09T05:50:51.893Z,35.93
2016-08-09T05:51:17.483Z,36.02
2016-08-09T05:52:28.541Z,36.22
2016-08-09T05:52:54.112Z,36.51
2016-08-09T05:53:57.466Z,37.09
2016-08-09T05:54:18.398Z,36.7
2016-08-09T05:54:44.100Z,36.76
2016-08-09T05:55:09.682Z,36.96
2016-08-09T05:55:35.493Z,37.62
2016-08-09T05:56:01.015Z,38.1
2016-08-09T05:56:26.564Z,38.41
2016-08-09T05:56:52.126Z,38.41
2016-08-09T05:57:17.693Z,38.12
2016-08-09T05:57:43.284Z,38.39
2016-08-09T05:58:08.850Z,38.29
2016-08-09T05:58:34.425Z,38.46
2016-08-09T05:59:00.011Z,39.04
2016-08-09T05:59:25.626Z,39.43
2016-08-09T05:59:51.192Z,39.43
2016-08-09T06:02:45.252Z,42.5
2016-08-09T06:03:10.919Z,41.35
2016-08-09T06:03:36.466Z,41.05
2016-08-09T06:04:02.109Z,41.15
2016-08-09T06:04:27.833Z,41.33
2016-08-09T06:04:53.364Z,41.44
2016-08-09T06:05:19.015Z,41.44
2016-08-09T06:05:45.177Z,41.42
2016-08-09T06:06:10.724Z,41.52
2016-08-09T06:06:36.922Z,41.52
2016-08-09T06:07:02.690Z,41.52
2016-08-09T06:07:28.288Z,41.81
2016-08-09T06:07:54.262Z,41.71
2016-08-09T06:08:19.944Z,41.81
2016-08-09T06:08:46.123Z,41.63
2016-08-09T06:09:11.682Z,41.61
2016-08-09T06:09:37.413Z,41.61
2016-08-09T06:10:03.444Z,41.63
2016-08-09T06:10:29.034Z,41.54
2016-08-09T06:10:55.213Z,41.44
2016-08-09T06:11:20.814Z,41.44
2016-08-09T06:11:46.982Z,41.44
2016-08-09T06:12:12.563Z,41.73
2016-08-09T06:12:38.198Z,41.44
2016-08-09T06:13:04.375Z,41.42
2016-08-09T06:13:30.004Z,41.71
2016-08-09T06:13:56.171Z,41.5
2016-08-09T06:14:21.716Z,41.88
2016-08-09T06:14:47.309Z,42.46
2016-08-09T06:15:13.455Z,42.56
2016-08-09T06:15:39.086Z,42.58
2016-08-09T06:16:05.242Z,42.46
2016-08-09T06:16:30.802Z,42.29
2016-08-09T06:16:57.105Z,41.91
2016-08-09T06:17:22.686Z,41.81
2016-08-09T06:17:48.439Z,41.81
2016-08-09T06:18:40.095Z,41.91
2016-08-09T06:19:06.216Z,42.08
2016-08-09T06:19:31.843Z,42.56
2016-08-09T06:19:57.444Z,42.27
2016-08-09T06:20:23.583Z,42.77
2016-08-09T06:20:49.212Z,41.91
2016-08-09T06:21:15.386Z,41.71
2016-08-09T06:21:40.943Z,41.81
2016-08-09T06:22:07.211Z,41.52
2016-08-09T06:22:32.796Z,41.61
2016-08-09T06:23:18.376Z,41.81
2016-08-09T06:23:43.927Z,42.27
2016-08-09T06:24:09.594Z,42.36
2016-08-09T06:24:35.243Z,42.36
2016-08-09T06:25:00.748Z,42.36
2016-08-09T06:25:26.384Z,42.36
2016-08-09T06:25:51.974Z,42.27
2016-08-09T06:26:17.550Z,42.46
2016-08-09T06:26:43.474Z,42.63
2016-08-09T06:27:09.034Z,42.94
2016-08-09T06:27:34.753Z,43.02
2016-08-09T06:28:00.483Z,43.21
2016-08-09T06:28:26.064Z,43.43
2016-08-09T06:28:51.694Z,43.04
2016-08-09T06:29:17.243Z,43.04
2016-08-09T06:29:43.194Z,43.52
2016-08-09T06:30:08.927Z,42.94
2016-08-09T06:30:34.553Z,42.56
2016-08-09T06:31:00.103Z,42.44
2016-08-09T06:31:25.761Z,43.02
2016-08-09T06:31:51.322Z,43.04
2016-08-09T06:32:16.932Z,42.94
2016-08-09T06:32:43.013Z,42.66
2016-08-09T06:33:08.653Z,42.46
2016-08-09T06:33:34.663Z,42.68
2016-08-09T06:34:00.322Z,42
2016-08-09T06:34:25.998Z,41.81
2016-08-09T06:34:52.003Z,41.81
2016-08-09T06:35:17.574Z,41.71
2016-08-09T06:35:43.796Z,41.78
2016-08-09T06:36:09.392Z,42.08
2016-08-09T06:36:35.571Z,42.56
2016-08-09T06:37:01.125Z,42.46
2016-08-09T06:37:26.724Z,42.18
2016-08-09T06:37:53.132Z,42.27
2016-08-09T06:38:18.823Z,42.75
2016-08-09T06:38:44.784Z,42.66
2016-08-09T06:39:10.354Z,42.46
2016-08-09T06:39:35.921Z,42.36
2016-08-09T06:40:02.107Z,42.75
2016-08-09T06:40:27.695Z,42.1
2016-08-09T06:40:53.978Z,41.91
2016-08-09T06:41:19.610Z,41.71
2016-08-09T06:41:45.677Z,41.52
2016-08-09T06:42:11.180Z,41.61
2016-08-09T06:42:36.845Z,41.52
2016-08-09T06:43:03.013Z,41.91
2016-08-09T06:43:30.477Z,41.88
2016-08-09T06:43:56.156Z,42.08
2016-08-09T06:44:21.784Z,42.66
2016-08-09T06:44:47.424Z,42.18
2016-08-09T06:45:13.081Z,42.1
2016-08-09T06:45:38.792Z,41.71
2016-08-09T06:46:04.359Z,41.71
2016-08-09T06:46:30.021Z,41.71
2016-08-09T06:46:55.714Z,41.52
2016-08-09T06:47:21.302Z,41.71
2016-08-09T06:47:46.973Z,41.91
2016-08-09T06:48:13.105Z,41.61
2016-08-09T06:48:38.724Z,41.78
2016-08-09T06:49:04.931Z,41.6
2016-08-09T06:49:30.515Z,42.08
2016-08-09T06:52:31.533Z,42.75
2016-08-09T06:52:57.114Z,42.27
2016-08-09T06:53:23.213Z,42.18
2016-08-09T06:53:48.772Z,42.56
2016-08-09T06:54:15.070Z,42.18
2016-08-09T06:54:40.637Z,42.44
2016-08-09T06:55:06.252Z,42.63
2016-08-09T06:55:32.447Z,43.6
2016-08-09T06:55:58.048Z,43.21
2016-08-09T06:56:24.304Z,43.12
2016-08-09T06:56:50.001Z,43.21
2016-08-09T06:57:16.111Z,43.12
2016-08-09T06:57:41.709Z,43.41
2016-08-09T06:58:07.266Z,43.5
2016-08-09T06:58:33.488Z,43.5
2016-08-09T06:58:59.134Z,43.5
2016-08-09T06:59:25.253Z,43.31
2016-08-09T06:59:50.847Z,43.5
2016-08-09T07:00:16.553Z,43.21
2016-08-09T07:00:42.571Z,43.02
2016-08-09T07:01:08.170Z,42.63
2016-08-09T07:01:34.331Z,42.54
2016-08-09T07:01:59.898Z,42.44
2016-08-09T07:02:26.214Z,42.18
2016-08-09T07:02:51.804Z,42.35
2016-08-09T07:03:17.413Z,42.63
2016-08-09T07:03:43.679Z,42.35
2016-08-09T07:04:09.416Z,42.54
2016-08-09T07:04:35.320Z,43.02
2016-08-09T07:05:00.884Z,42.63
2016-08-09T07:05:26.544Z,42.35
2016-08-09T07:05:52.623Z,42.56
2016-08-09T07:06:19.009Z,42.56
2016-08-09T07:06:44.621Z,42.66
2016-08-09T07:07:10.263Z,41.98
2016-08-09T07:07:36.211Z,42.44
2016-08-09T07:08:01.929Z,42.66
2016-08-09T07:08:27.718Z,42.27
2016-08-09T07:08:53.556Z,42.25
2016-08-09T07:09:19.133Z,42.36
2016-08-09T07:09:45.371Z,42.63
2016-08-09T07:10:10.943Z,42.15
2016-08-09T07:10:36.511Z,42.54
2016-08-09T07:11:02.739Z,42.56
2016-08-09T07:11:28.444Z,42.25
2016-08-09T07:11:54.532Z,42.25
2016-08-09T07:12:20.087Z,42.35
2016-08-09T07:13:11.806Z,42.27
2016-08-09T07:13:37.451Z,41.88
2016-08-09T07:14:03.713Z,41.78
2016-08-09T07:14:30.014Z,41.69
2016-08-09T07:14:55.628Z,41.88
2016-08-09T07:15:21.329Z,42.08
2016-08-09T07:15:46.924Z,41.98
2016-08-09T07:16:12.785Z,41.78
2016-08-09T07:16:38.398Z,41.88
2016-08-09T07:17:04.656Z,41.6
2016-08-09T07:17:30.387Z,41.5
2016-08-09T07:17:56.398Z,41.4
2016-08-09T07:18:47.822Z,41.6
2016-08-09T07:19:13.744Z,41.6
2016-08-09T07:19:39.482Z,41.69
2016-08-09T07:20:05.540Z,41.78
2016-08-09T07:20:31.089Z,41.69
2016-08-09T07:20:56.676Z,41.78
2016-08-09T07:21:22.913Z,41.5
2016-08-09T07:21:48.567Z,41.69
2016-08-09T07:22:14.704Z,41.52
2016-08-09T07:22:40.276Z,41.52
2016-08-09T07:23:06.480Z,41.42
2016-08-09T07:23:32.116Z,41.52
2016-08-09T07:23:57.810Z,41.52
2016-08-09T07:24:23.865Z,41.52
2016-08-09T07:24:49.665Z,41.5
2016-08-09T07:25:15.652Z,41.6
2016-08-09T07:25:41.212Z,41.78
2016-08-09T07:26:06.825Z,41.69
2016-08-09T07:26:32.973Z,41.6
2016-08-09T07:26:58.563Z,41.88
2016-08-09T07:27:24.679Z,41.42
2016-08-09T07:27:50.243Z,41.52
2016-08-09T07:28:16.467Z,41.23
2016-08-09T07:28:42.034Z,41.23
2016-08-09T07:29:07.608Z,41.03
2016-08-09T07:29:33.813Z,40.67
2016-08-09T07:30:19.293Z,40.57
2016-08-09T07:30:44.893Z,40.57
2016-08-09T07:31:10.521Z,40.19
2016-08-09T07:31:36.077Z,39.8
2016-08-09T07:32:01.719Z,40.09
2016-08-09T07:32:27.289Z,40.38
2016-08-09T07:32:52.902Z,40.28
2016-08-09T07:33:18.463Z,40.19
2016-08-09T07:33:44.042Z,39.99
2016-08-09T07:34:09.600Z,40.09
2016-08-09T07:34:35.186Z,40.19
2016-08-09T07:35:00.735Z,39.7
2016-08-09T07:35:26.303Z,40.09
2016-08-09T07:35:51.863Z,40.09
2016-08-09T07:36:17.422Z,39.9
2016-08-09T07:36:42.995Z,40.09
2016-08-09T07:37:08.572Z,39.62
2016-08-09T07:37:34.639Z,39.92
2016-08-09T07:38:00.205Z,39.62
2016-08-09T07:38:25.851Z,39.72
2016-08-09T07:38:51.983Z,39.34
2016-08-09T07:39:17.537Z,39.22
2016-08-09T07:39:43.776Z,39.32
2016-08-09T07:40:09.354Z,39.7
2016-08-09T07:40:34.908Z,40.26
2016-08-09T07:41:01.087Z,40.55
2016-08-09T07:41:26.727Z,40.45
2016-08-09T07:41:52.973Z,40.55
2016-08-09T07:42:18.531Z,40.55
2016-08-09T07:42:44.697Z,40.65
2016-08-09T07:43:10.259Z,40.53
2016-08-09T07:43:35.811Z,40.82
2016-08-09T07:44:02.056Z,40.82
2016-08-09T07:44:27.619Z,40.72
2016-08-09T07:44:53.844Z,41.2
2016-08-09T07:45:19.416Z,40.72
2016-08-09T07:45:44.983Z,40.82
2016-08-09T07:46:11.191Z,40.82
2016-08-09T07:46:36.861Z,40.92
2016-08-09T07:47:02.982Z,40.92
2016-08-09T07:47:28.571Z,40.92
2016-08-09T07:47:54.786Z,40.72
2016-08-09T07:48:20.351Z,40.63
2016-08-09T07:48:45.912Z,40.72
2016-08-09T07:49:12.104Z,40.72
2016-08-09T07:49:37.654Z,41.02
2016-08-09T07:50:03.923Z,40.8
2016-08-09T07:50:29.503Z,41.28
2016-08-09T07:50:55.274Z,41.48
2016-08-09T07:51:21.295Z,41.28
2016-08-09T07:51:46.799Z,41.28
2016-08-09T07:52:13.071Z,41.48
2016-08-09T07:52:38.633Z,41.48
2016-08-09T07:53:04.854Z,41.86
2016-08-09T07:53:30.473Z,41.57
2016-08-09T07:53:56.035Z,41.57
2016-08-09T07:54:22.205Z,41.78
2016-08-09T07:54:47.782Z,41.38
2016-08-09T07:55:14.003Z,41.57
2016-08-09T07:55:39.706Z,41.6
2016-08-09T07:56:05.268Z,41.48
2016-08-09T07:56:31.336Z,41.77
2016-08-09T07:56:56.900Z,41.77
2016-08-09T07:57:23.280Z,42.05
2016-08-09T07:58:08.764Z,41.77
2016-08-09T07:58:34.395Z,42.05
2016-08-09T07:58:59.966Z,42.23
2016-08-09T07:59:25.532Z,42.03
2016-08-09T07:59:51.098Z,42.52
2016-08-09T08:00:16.660Z,42.42
2016-08-09T08:00:42.223Z,42.52
2016-08-09T08:01:07.794Z,42.32
2016-08-09T08:01:33.372Z,43.1
2016-08-09T08:01:58.922Z,42.52
2016-08-09T08:02:24.526Z,42.23
2016-08-09T08:02:50.079Z,42.32
2016-08-09T08:03:15.641Z,42.42
2016-08-09T08:03:41.187Z,42.71
2016-08-09T08:04:06.733Z,42.71
2016-08-09T08:04:32.305Z,42.61
2016-08-09T08:04:57.871Z,42.49
2016-08-09T08:05:23.460Z,42.32
2016-08-09T08:06:09.533Z,42.61
2016-08-09T08:06:36.176Z,42.9
2016-08-09T08:07:01.752Z,42.88
2016-08-09T08:07:27.303Z,42.59
2016-08-09T08:07:53.581Z,42.79
2016-08-09T08:08:19.149Z,43
2016-08-09T08:08:45.320Z,42.8
2016-08-09T08:09:10.901Z,42.32
2016-08-09T08:09:37.128Z,42.61
2016-08-09T08:10:02.777Z,42.32
2016-08-09T08:10:28.332Z,42.59
2016-08-09T08:10:54.443Z,42.59
2016-08-09T08:11:19.985Z,42.59
2016-08-09T08:12:05.464Z,42.9
2016-08-09T08:12:31.028Z,43.07
2016-08-09T08:12:56.625Z,43.07
2016-08-09T08:13:22.184Z,42.88
2016-08-09T08:13:47.755Z,42.97
2016-08-09T08:14:13.297Z,42.9
2016-08-09T08:14:38.878Z,43.1
2016-08-09T08:15:04.445Z,42.97
2016-08-09T08:15:30.014Z,43.46
2016-08-09T08:15:55.580Z,43.17
2016-08-09T08:16:21.158Z,43.07
2016-08-09T08:16:46.802Z,43.37
2016-08-09T08:17:12.472Z,43.46
2016-08-09T08:17:38.033Z,43.37
2016-08-09T08:18:03.600Z,43.17
2016-08-09T08:18:29.176Z,43.37
2016-08-09T08:18:55.256Z,43.38
2016-08-09T08:19:20.823Z,43.58
2016-08-09T08:19:46.499Z,43.27
2016-08-09T08:20:12.608Z,43.17
2016-08-09T08:20:38.195Z,43.58
2016-08-09T08:21:04.394Z,43.38
2016-08-09T08:21:29.995Z,43.27
2016-08-09T08:21:55.585Z,43.37
2016-08-09T08:22:21.729Z,43.19
2016-08-09T08:22:47.348Z,43.65
2016-08-09T08:23:13.542Z,43.48
2016-08-09T08:23:39.100Z,43.37
2016-08-09T08:24:24.589Z,43.67
2016-08-09T08:24:50.145Z,42.71
2016-08-09T08:25:15.743Z,42.49
2016-08-09T08:25:41.311Z,42.3
2016-08-09T08:26:06.848Z,42.61
2016-08-09T08:26:32.422Z,42.59
2016-08-09T08:26:58.036Z,42.59
2016-08-09T08:27:23.609Z,42.3
2016-08-09T08:27:49.217Z,42.21
2016-08-09T08:28:14.774Z,42.42
2016-08-09T08:28:40.396Z,42.42
2016-08-09T08:29:06.015Z,42.59
2016-08-09T08:29:31.605Z,42.52
2016-08-09T08:29:57.166Z,42.61
2016-08-09T08:30:22.738Z,42.61
2016-08-09T08:30:48.350Z,42.52
2016-08-09T08:31:13.915Z,42.59
2016-08-09T08:31:39.883Z,42.4
2016-08-09T08:32:05.488Z,43.07
2016-08-09T08:32:31.667Z,42.88
2016-08-09T08:32:57.250Z,43.17
2016-08-09T08:33:23.492Z,42.8
2016-08-09T08:33:49.059Z,42.8
2016-08-09T08:34:14.625Z,42.8
2016-08-09T08:34:40.816Z,43
2016-08-09T08:35:06.364Z,42.61
2016-08-09T08:35:32.632Z,42.61
2016-08-09T08:35:58.192Z,42.61
2016-08-09T08:36:23.777Z,42.52
2016-08-09T08:36:50.016Z,42.42
2016-08-09T08:37:15.558Z,42.61
2016-08-09T08:37:41.798Z,42.52
2016-08-09T08:38:07.362Z,42.8
2016-08-09T08:38:33.556Z,42.42
2016-08-09T08:38:59.123Z,42.71
2016-08-09T08:39:24.816Z,42.52
2016-08-09T08:39:50.910Z,43
2016-08-09T08:40:16.506Z,43.1
2016-08-09T08:41:10.934Z,45.14
2016-08-09T08:41:36.501Z,43.21
2016-08-09T08:42:02.058Z,42.56
2016-08-09T08:42:27.615Z,42.18
2016-08-09T08:42:53.280Z,41.69
2016-08-09T08:43:18.905Z,41.69
2016-08-09T08:43:44.486Z,41.4
2016-08-09T08:44:10.174Z,40.72
2016-08-09T08:44:35.815Z,40.94
2016-08-09T08:45:01.419Z,40.45
2016-08-09T08:45:26.983Z,40.26
2016-08-09T08:45:52.552Z,39.97
2016-08-09T08:46:18.128Z,39.69
2016-08-09T08:46:43.696Z,39.29
2016-08-09T08:47:09.320Z,39.11
2016-08-09T08:47:34.883Z,39.03
2016-08-09T08:48:00.446Z,39.12
2016-08-09T08:48:26.068Z,38.54
2016-08-09T08:48:51.634Z,38.35
2016-08-09T08:49:17.202Z,38.06
2016-08-09T08:49:42.771Z,37.96
2016-08-09T08:50:08.387Z,37.79
2016-08-09T08:50:33.991Z,37.87
2016-08-09T08:50:59.534Z,37.77
2016-08-09T08:51:25.099Z,37.3
2016-08-09T08:51:50.650Z,37.58
2016-08-09T08:52:16.254Z,37.21
2016-08-09T08:52:41.827Z,37.6
2016-08-09T08:53:07.377Z,37.3
2016-08-09T08:53:32.943Z,37.62
2016-08-09T08:53:58.511Z,37.23
2016-08-09T08:54:24.088Z,36.74
2016-08-09T08:54:49.642Z,36.74
2016-08-09T08:55:15.203Z,36.84
2016-08-09T08:55:40.760Z,36.55
2016-08-09T08:56:06.495Z,36.84
2016-08-09T08:56:32.050Z,36.16
2016-08-09T08:56:57.610Z,36.86
2016-08-09T08:57:23.259Z,36.07
2016-08-09T08:57:48.815Z,36.08
2016-08-09T08:58:14.396Z,36.08
2016-08-09T08:58:39.957Z,36.08
2016-08-09T08:59:05.533Z,35.89
2016-08-09T08:59:31.099Z,35.8
2016-08-09T08:59:56.645Z,35.6
2016-08-09T09:00:22.221Z,35.5
2016-08-09T09:00:47.800Z,35.89
2016-08-09T09:01:13.359Z,35.6
2016-08-09T09:01:38.932Z,35.5
2016-08-09T09:02:04.505Z,35.31
2016-08-09T09:02:30.084Z,35.7
2016-08-09T09:02:55.674Z,35.6
2016-08-09T09:03:21.242Z,35.6
2016-08-09T09:04:12.357Z,35.5
2016-08-09T09:04:37.986Z,35.41
2016-08-09T09:05:03.559Z,35.5
2016-08-09T09:05:29.129Z,35.7
2016-08-09T09:05:54.704Z,35.5
2016-08-09T09:06:20.333Z,35.5
2016-08-09T09:06:45.894Z,35.5
2016-08-09T09:07:11.463Z,35.33
2016-08-09T09:07:37.048Z,35.31
2016-08-09T09:08:02.602Z,35.42
2016-08-09T09:08:28.172Z,35.33
2016-08-09T09:08:53.723Z,35.31
2016-08-09T09:09:19.293Z,35.6
2016-08-09T09:09:45.004Z,35.52
2016-08-09T09:10:10.578Z,35.72
2016-08-09T09:10:36.136Z,35.72
2016-08-09T09:11:01.782Z,35.62
2016-08-09T09:11:27.425Z,35.99
2016-08-09T09:11:53.039Z,35.8
2016-08-09T09:12:18.614Z,35.99
2016-08-09T09:12:44.204Z,35.8
2016-08-09T09:13:09.774Z,36
2016-08-09T09:13:35.364Z,35.62
2016-08-09T09:14:00.891Z,35.5
2016-08-09T09:14:26.454Z,35.42
2016-08-09T09:14:52.029Z,35.62
2016-08-09T09:15:17.711Z,35.52
2016-08-09T09:15:43.284Z,35.62
2016-08-09T09:16:08.846Z,35.52
2016-08-09T09:16:34.490Z,35.62
2016-08-09T09:17:00.085Z,35.7
2016-08-09T09:17:25.670Z,36.08
2016-08-09T09:17:51.230Z,36
2016-08-09T09:18:16.787Z,35.72
2016-08-09T09:18:42.366Z,35.52
2016-08-09T09:19:07.908Z,35.52
2016-08-09T09:19:33.459Z,35.52
2016-08-09T09:19:59.053Z,35.52
2016-08-09T09:20:24.609Z,35.52
2016-08-09T09:20:50.171Z,35.33
2016-08-09T09:21:15.740Z,35.13
2016-08-09T09:21:41.279Z,35.13
2016-08-09T09:22:06.827Z,35.21
2016-08-09T09:22:32.408Z,35.33
2016-08-09T09:22:57.953Z,35.42
2016-08-09T09:23:23.509Z,35.42
2016-08-09T09:23:49.052Z,35.52
2016-08-09T09:24:14.676Z,35.52
2016-08-09T09:27:15.719Z,35.42
2016-08-09T09:27:41.271Z,35.42
2016-08-09T09:28:06.827Z,35.33
2016-08-09T09:28:32.391Z,35.33
2016-08-09T09:28:57.966Z,35.04
2016-08-09T09:29:23.641Z,35.13
2016-08-09T09:29:49.201Z,35.04
2016-08-09T09:30:14.775Z,35.23
2016-08-09T09:30:40.342Z,35.23
2016-08-09T09:31:05.916Z,35.13
2016-08-09T09:31:31.485Z,35.23
2016-08-09T09:31:57.025Z,35.33
2016-08-09T09:32:22.599Z,35.33
2016-08-09T09:32:48.155Z,35.33
2016-08-09T09:33:13.723Z,35.13
2016-08-09T09:33:39.291Z,35.04
2016-08-09T09:34:04.870Z,35.13
2016-08-09T09:34:30.420Z,35.23
2016-08-09T09:34:55.987Z,35.23
2016-08-09T09:35:21.571Z,34.84
2016-08-09T09:35:47.177Z,34.84
2016-08-09T09:36:12.815Z,34.75
2016-08-09T09:36:38.395Z,34.75
2016-08-09T09:37:03.971Z,34.45
2016-08-09T09:37:29.539Z,34.55
2016-08-09T09:37:55.193Z,34.65
2016-08-09T09:38:20.763Z,34.65
2016-08-09T09:38:46.331Z,34.94
2016-08-09T09:39:11.906Z,35.23
2016-08-09T09:39:37.474Z,35.31
2016-08-09T09:40:03.043Z,35.62
2016-08-09T09:40:28.654Z,35.33
2016-08-09T09:40:54.233Z,35.23
2016-08-09T09:41:19.810Z,35.23
2016-08-09T09:41:45.376Z,35.33
2016-08-09T09:42:10.943Z,35.23
2016-08-09T09:42:36.515Z,35.13
2016-08-09T09:43:02.150Z,35.13
2016-08-09T09:43:27.720Z,35.33
2016-08-09T09:43:53.289Z,35.5
2016-08-09T09:44:18.862Z,35.6
2016-08-09T09:44:44.426Z,35.42
2016-08-09T09:45:09.984Z,34.94
2016-08-09T09:45:35.563Z,35.04
2016-08-09T09:46:01.141Z,34.94
2016-08-09T09:46:26.690Z,35.13
2016-08-09T09:46:52.250Z,35.23
2016-08-09T09:47:17.814Z,35.13
2016-08-09T09:47:43.393Z,35.13
2016-08-09T09:48:08.964Z,35.33
2016-08-09T09:48:34.554Z,35.42
2016-08-09T09:49:25.805Z,35.52
2016-08-09T09:49:51.367Z,35.6
2016-08-09T09:50:17.034Z,35.62
2016-08-09T09:50:42.590Z,35.52
2016-08-09T09:51:08.162Z,35.62
2016-08-09T09:51:33.739Z,35.52
2016-08-09T09:51:59.300Z,35.42
2016-08-09T09:52:24.886Z,35.23
2016-08-09T09:52:50.475Z,35.23
2016-08-09T09:53:16.113Z,35.13
2016-08-09T09:53:41.674Z,34.75
2016-08-09T09:54:07.236Z,34.75
2016-08-09T09:54:32.797Z,34.75
2016-08-09T09:54:58.503Z,35.02
2016-08-09T09:55:24.085Z,35.31
2016-08-09T09:55:49.655Z,35.5
2016-08-09T09:56:15.329Z,35.42
2016-08-09T09:56:40.903Z,35.5
2016-08-09T09:57:06.465Z,35.42
2016-08-09T09:57:32.084Z,35.13
2016-08-09T09:57:57.623Z,35.12
2016-08-09T09:58:23.189Z,35.12
2016-08-09T09:58:48.755Z,35.13
2016-08-09T09:59:14.339Z,35.04
2016-08-09T09:59:39.901Z,35.33
2016-08-09T10:00:05.463Z,35.13
2016-08-09T10:00:31.035Z,35.12
2016-08-09T10:00:56.602Z,35.42
2016-08-09T10:01:22.191Z,35.13
2016-08-09T10:01:47.774Z,35.23
2016-08-09T10:02:13.346Z,34.94
2016-08-09T10:02:38.936Z,35.13
2016-08-09T10:03:04.533Z,35.04
2016-08-09T10:03:30.086Z,34.65
2016-08-09T10:03:55.659Z,34.45
2016-08-09T10:04:21.245Z,34.84
2016-08-09T10:04:46.808Z,34.75
2016-08-09T10:05:12.446Z,34.75
2016-08-09T10:05:38.014Z,34.65
2016-08-09T10:06:03.585Z,34.75
2016-08-09T10:06:29.208Z,34.65
2016-08-09T10:06:54.844Z,34.55
2016-08-09T10:07:20.415Z,34.36
2016-08-09T10:07:45.989Z,34.27
2016-08-09T10:08:11.558Z,34.17
2016-08-09T10:08:37.103Z,34.27
2016-08-09T10:09:02.674Z,33.87
2016-08-09T10:09:28.244Z,33.69
2016-08-09T10:09:53.814Z,33.69
2016-08-09T10:10:19.384Z,33.49
2016-08-09T10:10:44.946Z,33.78
2016-08-09T10:11:10.500Z,33.49
2016-08-09T10:11:36.068Z,33.87
2016-08-09T10:12:01.630Z,33.87
2016-08-09T10:12:27.301Z,33.49
2016-08-09T10:12:52.869Z,33.59
2016-08-09T10:13:18.446Z,33.59
2016-08-09T10:13:44.004Z,33.69
2016-08-09T10:14:09.564Z,34.17
2016-08-09T10:14:35.148Z,34.27
2016-08-09T10:15:00.716Z,34.36
2016-08-09T10:15:26.300Z,33.97
2016-08-09T10:15:51.847Z,33.69
2016-08-09T10:16:17.423Z,33.69
2016-08-09T10:16:42.988Z,33.49
2016-08-09T10:17:08.632Z,33.78
2016-08-09T10:17:34.203Z,33.69
2016-08-09T10:17:59.793Z,33.29
2016-08-09T10:18:25.355Z,33.2
2016-08-09T10:18:50.999Z,33.39
2016-08-09T10:19:42.229Z,33.87
2016-08-09T10:20:07.823Z,34.63
2016-08-09T10:20:33.384Z,34.75
2016-08-09T10:20:58.958Z,34.75
2016-08-09T10:21:24.534Z,34.75
2016-08-09T10:21:50.101Z,34.45
2016-08-09T10:22:15.677Z,34.36
2016-08-09T10:22:41.232Z,34.55
2016-08-09T10:23:06.786Z,34.27
2016-08-09T10:23:32.350Z,34.27
2016-08-09T10:23:57.940Z,34.36
2016-08-09T10:24:23.517Z,34.45
2016-08-09T10:24:49.104Z,33.87
2016-08-09T10:25:14.663Z,33.78
2016-08-09T10:25:40.244Z,34.27
2016-08-09T10:26:05.826Z,33.87
2016-08-09T10:26:31.396Z,33.59
2016-08-09T10:26:56.954Z,33.49
2016-08-09T10:27:22.506Z,33.78
2016-08-09T10:27:48.161Z,33.97
2016-08-09T10:28:13.758Z,33.78
2016-08-09T10:28:39.333Z,34.07
2016-08-09T10:29:04.873Z,34.45
2016-08-09T10:29:30.447Z,34.63
2016-08-09T10:29:56.033Z,34.84
2016-08-09T10:30:21.598Z,34.84
2016-08-09T10:30:47.312Z,34.45
2016-08-09T10:31:12.893Z,33.97
2016-08-09T10:31:38.473Z,33.69
2016-08-09T10:32:04.117Z,33.49
2016-08-09T10:32:29.958Z,33.78
2016-08-09T10:32:55.531Z,33.49
2016-08-09T10:33:21.094Z,33.49
2016-08-09T10:33:46.657Z,33.41
2016-08-09T10:34:12.233Z,32.71
2016-08-09T10:34:37.804Z,32.71
2016-08-09T10:35:03.366Z,32.62
2016-08-09T10:35:28.923Z,32.52
2016-08-09T10:35:54.505Z,32.33
2016-08-09T10:36:20.195Z,32.44
2016-08-09T10:36:45.776Z,32.42
2016-08-09T10:37:11.335Z,32.62
2016-08-09T10:37:36.901Z,32.62
2016-08-09T10:38:02.523Z,32.62
2016-08-09T10:38:28.113Z,32.71
2016-08-09T10:38:53.707Z,32.62
2016-08-09T10:39:19.279Z,32.91
2016-08-09T10:39:44.834Z,33.39
2016-08-09T10:40:10.409Z,33.39
2016-08-09T10:40:36.056Z,33.69
2016-08-09T10:41:01.609Z,33.2
2016-08-09T10:41:27.174Z,33.69
2016-08-09T10:41:52.735Z,33.69
2016-08-09T10:42:18.315Z,33.51
2016-08-09T10:42:43.895Z,33.31
2016-08-09T10:43:09.464Z,33.2
2016-08-09T10:43:35.047Z,33.49
2016-08-09T10:44:00.613Z,32.62
2016-08-09T10:44:26.181Z,32.62
2016-08-09T10:44:51.745Z,33.22
2016-08-09T10:45:17.322Z,33.1
2016-08-09T10:45:42.916Z,33.49
2016-08-09T10:46:08.483Z,33.39
2016-08-09T10:46:34.044Z,33.39
2016-08-09T10:46:59.711Z,33.49
2016-08-09T10:47:25.305Z,33.59
2016-08-09T10:47:50.880Z,33.59
2016-08-09T10:48:16.451Z,33.29
2016-08-09T10:48:42.011Z,33.69
2016-08-09T10:49:07.556Z,33.78
2016-08-09T10:49:33.128Z,34.17
2016-08-09T10:49:58.706Z,34.07
2016-08-09T10:50:24.277Z,34.36
2016-08-09T10:50:49.844Z,33.59
2016-08-09T10:51:15.400Z,33.78
2016-08-09T10:51:41.084Z,34.17
2016-08-09T10:52:06.645Z,33.87
2016-08-09T10:52:32.203Z,33.49
2016-08-09T10:52:57.802Z,33.69
2016-08-09T10:53:23.378Z,33.59
2016-08-09T10:53:48.955Z,33.39
2016-08-09T10:54:14.536Z,33.1
2016-08-09T10:54:40.122Z,32.71
2016-08-09T10:55:05.687Z,32.71
2016-08-09T10:55:31.271Z,32.33
2016-08-09T10:55:56.833Z,32.42
2016-08-09T10:56:22.501Z,32.52
2016-08-09T10:56:48.134Z,32.24
2016-08-09T10:57:13.705Z,31.74
2016-08-09T10:57:39.282Z,32.04
2016-08-09T10:58:04.854Z,31.94
2016-08-09T10:58:30.488Z,32.23
2016-08-09T10:58:56.044Z,32.33
2016-08-09T10:59:21.613Z,32.42
2016-08-09T10:59:47.163Z,32.62
2016-08-09T11:00:12.711Z,32.62